メインページ
METAR-TAF:

METAR-TAF

空港 :

北京, 中華人民共和国

北京首都国際空港

緯度: 39-56N, 経度: 116-17E, 海抜: 55m

現時点の気象観測

当レポートは44分前の14:00(UTC)に作成
変向風 2kt
気温 25°C
湿度 94%
気圧 1009 hPa
視程10km以上
1,500メートル以下は雲なし、積乱雲なし

METAR: ZBAA 271400Z VRB01MPS CAVOK 25/24 Q1009 NOSIG

時間: 22:44 (14:44 UTC)

予報

当レポートは5時間24分前の09:20(UTC)に作成
予報は27日の 12時(UTC)から 28日の 12時(UTC)まで有効
南/南東の風 8kt
視程10km以上
1,500メートル以下は雲なし、積乱雲なし

TAF: ZBAA 270920Z 2712/2812 16004MPS CAVOK TX30/2807Z TN22/2721Z

4,000以上の空港の気象観測と天気予報(METAR報とTAF報)

利用可能な観測所は地図上に黄色い丸と赤い丸で示す。

丸の上にカーソルを重ねると観測所名を参照できる。

次にクリックすると気象観測と天気予報を参照できる。

マップの切り替え:黒色「×」印の緑ボタンをクリックして拡大、「-」印の緑ボタンをクリックして縮小、緑色の三角印をクリックして隣りの地図に切り替え


METAR-TAF: